Ben Arnold, Texas
Current Conditions -  °F | °C
As of 5:55 AM on Friday 21 Nov 2014 (Local Time) from KT35 Reporting Station
Haze Haze  
Wind Chill: 16°   Ceiling: 300
Heat Index: 16°   Visibility: 3mi
Dew Point: 16°   Wind: 7mph
Humidity: 99%   Direction: 140°SE
Pressure: 30.08"   Gusts: NA
Location:  30.9882°N, 97.103°W
Report Text: KT35 211155Z AUTO 14006KT 3SM BR OVC003 16/16 A3008 RMK AO2 60001 70001 T01620160 10162 20160
Loading
Personal Weather Stations






























Interactive Weather Map New forecast layout! Learn more

10-Day Weather Forecast

Advertisements
Track Severe Weather on mobile